Time;durP1;ratioP1;P1;durP2;ratioP2;P2;SDS_P1;SDS_P2;PMS_P1;PMS_P2;Temp;Humidity;BMP_temperature;BMP_pressure;BME280_temperature;BME280_humidity;BME280_pressure;Samples;Min_cycle;Max_cycle;Signal;HPM_P1;HPM_P2
2022/12/19 00:01:27;;;;;;;5.85;3.15;;;13.10;99.90;;;;;;4936121;29;20078;-74
2022/12/19 00:03:57;;;;;;;6.30;3.33;;;13.10;99.90;;;;;;4932384;29;20043;-73
2022/12/19 00:06:26;;;;;;;6.05;3.47;;;13.10;99.90;;;;;;4930819;29;20055;-73
2022/12/19 00:08:55;;;;;;;4.25;2.88;;;13.10;99.90;;;;;;4928640;29;20074;-73
2022/12/19 00:11:23;;;;;;;8.60;2.70;;;13.10;99.90;;;;;;4926926;29;20118;-74
2022/12/19 00:13:51;;;;;;;6.40;3.60;;;13.10;99.90;;;;;;4930337;29;20095;-73
2022/12/19 00:16:24;;;;;;;6.93;2.88;;;13.00;99.90;;;;;;4930193;29;20179;-73
2022/12/19 00:18:53;;;;;;;6.20;3.55;;;13.10;99.90;;;;;;4931084;29;20395;-73
2022/12/19 00:21:24;;;;;;;6.55;2.72;;;13.00;99.90;;;;;;4936447;29;20067;-73
2022/12/19 00:23:52;;;;;;;5.05;2.13;;;13.10;99.90;;;;;;4932982;28;20502;-73
2022/12/19 00:26:33;;;;;;;7.00;2.80;;;13.10;99.90;;;;;;4924742;29;20478;-74
2022/12/19 00:29:04;;;;;;;8.68;2.50;;;13.10;99.90;;;;;;4931062;29;20039;-73
2022/12/19 00:31:35;;;;;;;5.03;2.28;;;13.10;99.90;;;;;;4954576;28;20178;-74
2022/12/19 00:34:02;;;;;;;5.43;2.63;;;13.10;99.90;;;;;;4959768;28;20066;-74
2022/12/19 00:36:32;;;;;;;5.90;2.35;;;13.10;99.90;;;;;;4957610;28;20046;-73
2022/12/19 00:39:02;;;;;;;6.40;3.38;;;13.10;99.90;;;;;;4962002;28;20036;-74
2022/12/19 00:41:34;;;;;;;5.15;2.58;;;13.10;99.90;;;;;;4943791;28;20042;-73
2022/12/19 00:44:06;;;;;;;4.03;2.58;;;13.10;99.90;;;;;;4980522;28;20078;-73
2022/12/19 00:46:35;;;;;;;4.00;2.15;;;13.10;99.90;;;;;;4966941;28;20062;-74
2022/12/19 00:49:03;;;;;;;6.40;2.63;;;13.10;99.90;;;;;;4960471;28;20519;-74
2022/12/19 00:51:34;;;;;;;5.20;2.70;;;13.00;99.90;;;;;;4961483;28;20043;-73
2022/12/19 00:54:03;;;;;;;4.43;2.97;;;13.00;99.90;;;;;;4959578;28;20073;-73
2022/12/19 00:56:32;;;;;;;9.90;2.30;;;13.00;99.90;;;;;;4940762;28;20074;-73
2022/12/19 00:59:00;;;;;;;4.88;2.33;;;13.00;99.90;;;;;;4964457;28;20129;-73
2022/12/19 01:01:33;;;;;;;7.78;2.67;;;13.00;99.90;;;;;;4967522;28;20138;-74
2022/12/19 01:04:02;;;;;;;6.47;3.33;;;13.00;99.90;;;;;;4964997;28;20042;-73
2022/12/19 01:06:50;;;;;;;8.32;2.40;;;13.00;99.90;;;;;;4966591;28;20184;-74
2022/12/19 01:09:20;;;;;;;6.22;3.00;;;13.00;99.90;;;;;;4969247;28;20054;-74
2022/12/19 01:14:34;;;;;;;8.00;2.45;;;13.00;99.90;;;;;;4967605;28;20047;-75
2022/12/19 01:17:02;;;;;;;4.97;2.72;;;13.00;99.90;;;;;;4955098;28;20358;-74
2022/12/19 01:19:29;;;;;;;7.85;2.92;;;13.00;99.90;;;;;;4967099;28;20042;-73
2022/12/19 01:21:57;;;;;;;5.25;2.97;;;13.00;99.90;;;;;;4967573;28;20353;-73
2022/12/19 01:24:25;;;;;;;10.57;3.03;;;13.00;99.90;;;;;;4958906;28;20081;-74
2022/12/19 01:26:52;;;;;;;7.82;3.33;;;13.00;99.90;;;;;;4941485;29;20126;-76
2022/12/19 01:29:20;;;;;;;11.80;3.08;;;13.00;99.90;;;;;;4944583;28;20058;-73
2022/12/19 01:31:47;;;;;;;6.03;2.30;;;13.00;99.90;;;;;;4949450;28;20057;-74
2022/12/19 01:34:14;;;;;;;4.80;2.45;;;13.00;99.90;;;;;;4955857;28;20046;-73
2022/12/19 01:36:42;;;;;;;7.20;3.45;;;13.00;99.90;;;;;;4963006;28;20046;-73
2022/12/19 01:39:09;;;;;;;13.68;4.00;;;13.00;99.90;;;;;;4968603;28;20069;-74
2022/12/19 01:41:37;;;;;;;5.97;2.97;;;13.00;99.90;;;;;;4954907;28;20190;-73
2022/12/19 01:44:07;;;;;;;5.70;2.78;;;13.00;99.90;;;;;;4937617;28;20059;-74
2022/12/19 01:46:49;;;;;;;6.10;2.58;;;13.00;99.90;;;;;;4960929;28;20043;-72
2022/12/19 01:49:22;;;;;;;5.15;2.88;;;12.90;99.90;;;;;;4936372;28;20051;-75
2022/12/19 01:51:52;;;;;;;7.88;2.78;;;12.90;99.90;;;;;;4963842;28;20054;-73
2022/12/19 01:54:26;;;;;;;5.32;2.85;;;12.90;99.90;;;;;;4948949;29;20070;-73
2022/12/19 01:56:57;;;;;;;6.15;2.85;;;12.90;99.90;;;;;;4958209;28;20054;-73
2022/12/19 01:59:32;;;;;;;6.63;2.33;;;12.90;99.90;;;;;;4967278;28;20567;-75
2022/12/19 02:02:08;;;;;;;4.20;2.03;;;12.80;99.90;;;;;;4968439;28;20047;-74
2022/12/19 02:04:39;;;;;;;8.82;2.15;;;12.90;99.90;;;;;;4967670;28;20075;-74
2022/12/19 02:07:07;;;;;;;8.75;3.20;;;12.90;99.90;;;;;;4944473;28;20078;-73
2022/12/19 02:09:36;;;;;;;5.03;2.63;;;12.80;99.90;;;;;;4967210;28;20046;-75
2022/12/19 02:12:04;;;;;;;3.85;2.40;;;12.80;99.90;;;;;;4950783;28;20386;-74
2022/12/19 02:14:35;;;;;;;7.60;3.60;;;12.80;99.90;;;;;;4948406;29;20051;-74
2022/12/19 02:17:33;;;;;;;6.00;3.22;;;12.80;99.90;;;;;;4950633;28;20047;-74
2022/12/19 02:20:17;;;;;;;5.40;2.90;;;12.80;99.90;;;;;;4950813;28;20278;-74
2022/12/19 02:23:13;;;;;;;5.80;2.22;;;12.70;99.90;;;;;;4949979;28;20054;-74
2022/12/19 02:26:04;;;;;;;7.00;2.42;;;12.70;99.90;;;;;;4949478;28;20047;-73
2022/12/19 02:28:53;;;;;;;5.80;3.17;;;12.70;99.90;;;;;;4957494;28;20194;-75
2022/12/19 02:31:40;;;;;;;5.45;2.35;;;12.70;99.90;;;;;;4936141;29;20078;-75
2022/12/19 02:34:13;;;;;;;8.40;2.47;;;12.80;99.90;;;;;;4949092;29;20058;-74
2022/12/19 02:37:20;;;;;;;4.55;2.63;;;12.80;99.90;;;;;;4964385;28;20065;-74
2022/12/19 02:39:51;;;;;;;;;;;12.80;99.90;;;;;;4966556;28;20287;-75
2022/12/19 02:42:30;;;;;;;5.05;2.72;;;12.70;99.90;;;;;;4970104;28;19941;-75
2022/12/19 02:45:01;;;;;;;7.72;2.25;;;12.80;99.90;;;;;;4987268;28;20081;-75
2022/12/19 02:47:32;;;;;;;4.38;2.50;;;12.70;99.90;;;;;;4961543;28;20470;-75
2022/12/19 02:50:03;;;;;;;5.25;2.83;;;12.70;99.90;;;;;;4933624;29;20532;-74
2022/12/19 02:52:31;;;;;;;7.82;3.25;;;12.80;99.90;;;;;;4933286;29;20047;-75
2022/12/19 02:55:06;;;;;;;4.80;2.47;;;12.70;99.90;;;;;;4949663;29;20051;-75
2022/12/19 02:58:04;;;;;;;4.90;2.50;;;12.70;99.90;;;;;;4920384;29;20051;-74
2022/12/19 03:00:39;;;;;;;6.40;2.28;;;12.70;99.90;;;;;;4934403;29;20039;-75
2022/12/19 03:03:10;;;;;;;8.13;2.70;;;12.70;99.90;;;;;;4933941;29;20058;-74
2022/12/19 03:05:59;;;;;;;5.15;2.10;;;12.70;99.90;;;;;;4948672;29;20658;-74
2022/12/19 03:08:43;;;;;;;3.40;2.38;;;12.70;99.90;;;;;;4952151;28;20051;-75
2022/12/19 03:11:13;;;;;;;4.78;2.20;;;12.70;99.90;;;;;;4936112;28;20513;-74
2022/12/19 03:13:57;;;;;;;5.07;2.50;;;12.70;99.90;;;;;;4964501;28;20153;-75
2022/12/19 03:16:24;;;;;;;5.32;2.20;;;12.70;99.90;;;;;;4948482;29;20106;-74
2022/12/19 03:18:53;;;;;;;4.82;2.90;;;12.60;99.90;;;;;;4965393;28;20109;-75
2022/12/19 03:21:34;;;;;;;5.05;2.45;;;12.60;99.90;;;;;;4968557;28;20212;-75
2022/12/19 03:24:03;;;;;;;8.30;3.05;;;12.60;99.90;;;;;;4968556;28;20057;-75
2022/12/19 03:26:36;;;;;;;5.43;2.30;;;12.60;99.90;;;;;;4968303;28;20047;-74
2022/12/19 03:29:14;;;;;;;3.92;2.90;;;12.60;99.90;;;;;;4935155;29;20051;-75
2022/12/19 03:31:45;;;;;;;7.53;2.83;;;12.60;99.90;;;;;;4948983;29;20059;-75
2022/12/19 03:34:39;;;;;;;6.25;2.95;;;12.60;99.90;;;;;;4950202;28;20051;-75
2022/12/19 03:37:12;;;;;;;5.38;2.17;;;12.60;99.90;;;;;;4953061;28;20334;-75
2022/12/19 03:39:42;;;;;;;10.70;3.33;;;12.50;99.90;;;;;;4952986;28;20043;-74
2022/12/19 03:45:00;;;;;;;5.55;2.55;;;12.50;99.90;;;;;;4936680;29;20149;-75
2022/12/19 03:47:39;;;;;;;5.05;2.72;;;12.50;99.90;;;;;;4964677;28;20046;-77
2022/12/19 03:50:08;;;;;;;6.00;3.22;;;12.50;99.90;;;;;;4957587;28;20051;-75
2022/12/19 03:53:08;;;;;;;10.30;2.95;;;12.40;99.90;;;;;;4953701;28;20106;-75
2022/12/19 03:56:09;;;;;;;10.45;2.58;;;12.40;99.90;;;;;;4955023;28;20058;-75
2022/12/19 03:58:39;;;;;;;8.55;2.75;;;12.40;99.90;;;;;;4953501;28;20102;-75
2022/12/19 04:01:08;;;;;;;7.07;3.00;;;12.40;99.90;;;;;;4939523;28;20054;-75
2022/12/19 04:03:36;;;;;;;9.07;2.65;;;12.40;99.90;;;;;;4971277;28;20061;-75
2022/12/19 04:06:04;;;;;;;3.58;2.00;;;12.50;99.90;;;;;;4971929;28;20137;-75
2022/12/19 04:08:34;;;;;;;9.13;3.05;;;12.50;99.90;;;;;;4953610;28;20110;-76
2022/12/19 04:11:08;;;;;;;6.07;3.05;;;12.50;99.90;;;;;;4969004;28;20051;-75
2022/12/19 04:13:47;;;;;;;11.30;3.90;;;12.50;99.90;;;;;;4971126;28;20076;-75
2022/12/19 04:16:38;;;;;;;9.48;3.28;;;12.30;99.90;;;;;;4953384;28;20118;-75
2022/12/19 04:19:32;;;;;;;4.97;2.30;;;12.40;99.90;;;;;;4952550;29;20418;-74
2022/12/19 04:22:07;;;;;;;14.30;3.20;;;12.40;99.90;;;;;;4953342;28;20130;-75
2022/12/19 04:24:39;;;;;;;5.03;2.30;;;12.30;99.90;;;;;;4953185;28;20054;-75
2022/12/19 04:27:09;;;;;;;4.70;2.30;;;12.40;99.90;;;;;;4961202;28;20047;-75
2022/12/19 04:29:38;;;;;;;5.20;3.15;;;12.30;99.90;;;;;;4952067;28;20051;-74
2022/12/19 04:32:07;;;;;;;5.85;2.92;;;12.40;99.90;;;;;;4935309;29;20054;-76
2022/12/19 04:34:35;;;;;;;6.10;3.08;;;12.40;99.90;;;;;;4950903;29;20054;-75
2022/12/19 04:37:05;;;;;;;5.75;2.58;;;12.40;99.90;;;;;;4960636;28;20082;-75
2022/12/19 04:39:33;;;;;;;8.05;3.13;;;12.40;99.90;;;;;;4951699;28;20058;-75
2022/12/19 04:42:00;;;;;;;6.85;2.65;;;12.40;99.90;;;;;;4950904;29;20055;-74
2022/12/19 04:44:28;;;;;;;7.28;2.85;;;12.30;99.90;;;;;;4952056;28;20048;-76
2022/12/19 04:46:55;;;;;;;5.95;2.97;;;12.40;99.90;;;;;;4958947;28;20054;-75
2022/12/19 04:49:23;;;;;;;7.38;4.30;;;12.40;99.90;;;;;;4971382;28;20054;-74
2022/12/19 04:51:50;;;;;;;5.15;2.35;;;12.40;99.90;;;;;;4950769;28;20125;-74
2022/12/19 04:54:18;;;;;;;8.57;3.35;;;12.40;99.90;;;;;;4934520;29;20409;-76
2022/12/19 04:56:46;;;;;;;6.35;2.55;;;12.40;99.90;;;;;;4957147;28;20046;-75
2022/12/19 04:59:13;;;;;;;5.47;2.45;;;12.40;99.90;;;;;;4970020;28;20039;-75
2022/12/19 05:01:41;;;;;;;5.55;3.20;;;12.40;99.90;;;;;;4954692;28;20134;-75
2022/12/19 05:04:09;;;;;;;5.25;2.28;;;12.30;99.90;;;;;;4918230;29;20052;-75
2022/12/19 05:06:37;;;;;;;6.85;2.35;;;12.40;99.90;;;;;;4938417;28;20047;-74
2022/12/19 05:09:05;;;;;;;5.03;2.90;;;12.30;99.90;;;;;;4969176;28;20096;-76
2022/12/19 05:11:32;;;;;;;8.15;2.60;;;12.30;99.90;;;;;;4956398;28;20113;-76
2022/12/19 05:14:00;;;;;;;11.65;3.03;;;12.30;99.90;;;;;;4951497;28;20051;-75
2022/12/19 05:16:27;;;;;;;8.48;4.20;;;12.30;99.90;;;;;;4953886;28;20450;-75
2022/12/19 05:18:55;;;;;;;4.95;2.53;;;12.40;99.90;;;;;;4966702;28;20051;-74
2022/12/19 05:21:22;;;;;;;6.57;3.05;;;12.30;99.90;;;;;;4943789;29;20461;-75
2022/12/19 05:23:50;;;;;;;7.40;2.60;;;12.30;99.90;;;;;;4950527;28;20164;-75
2022/12/19 05:26:18;;;;;;;4.70;2.72;;;12.20;99.90;;;;;;4950547;28;20497;-76
2022/12/19 05:28:46;;;;;;;5.15;2.63;;;12.20;99.90;;;;;;4969111;28;20485;-74
2022/12/19 05:31:18;;;;;;;5.07;2.28;;;12.20;99.90;;;;;;4921002;28;1253858;-75
2022/12/19 05:33:47;;;;;;;5.30;2.33;;;12.20;99.90;;;;;;4950288;29;20074;-74
2022/12/19 05:36:17;;;;;;;5.78;3.33;;;12.20;99.90;;;;;;4920063;28;20150;-74
2022/12/19 05:38:44;;;;;;;7.22;3.45;;;12.20;99.90;;;;;;4969842;28;20039;-75
2022/12/19 05:41:15;;;;;;;4.75;2.70;;;12.20;99.90;;;;;;4947575;29;20043;-75
2022/12/19 05:43:47;;;;;;;8.07;4.00;;;12.10;99.90;;;;;;4950277;29;20054;-75
2022/12/19 05:46:15;;;;;;;7.15;2.53;;;12.10;99.90;;;;;;4919820;28;20047;-75
2022/12/19 05:48:43;;;;;;;7.05;3.40;;;12.10;99.90;;;;;;4968931;28;20051;-75
2022/12/19 05:51:10;;;;;;;8.95;3.78;;;12.00;99.90;;;;;;4970631;28;20153;-75
2022/12/19 05:53:39;;;;;;;5.68;2.97;;;12.10;99.90;;;;;;4953453;28;20493;-75
2022/12/19 05:56:12;;;;;;;9.43;4.47;;;12.00;99.90;;;;;;4934239;29;20161;-75
2022/12/19 05:58:41;;;;;;;4.80;2.38;;;12.00;99.90;;;;;;4935087;28;20228;-75
2022/12/19 06:01:12;;;;;;;6.75;3.22;;;12.10;99.90;;;;;;4968965;28;20046;-75
2022/12/19 06:03:40;;;;;;;6.78;3.15;;;12.10;99.90;;;;;;4969054;28;20046;-75
2022/12/19 06:06:10;;;;;;;8.52;3.63;;;12.10;99.90;;;;;;4969694;28;20054;-75
2022/12/19 06:08:38;;;;;;;5.53;2.72;;;12.00;99.90;;;;;;4950279;29;20039;-75
2022/12/19 06:11:07;;;;;;;5.03;2.50;;;12.00;99.90;;;;;;4951689;28;20051;-74
2022/12/19 06:13:36;;;;;;;6.45;2.63;;;12.10;99.90;;;;;;4969546;28;20106;-75
2022/12/19 06:16:12;;;;;;;6.05;2.90;;;12.10;99.90;;;;;;4953434;28;20050;-75
2022/12/19 06:18:40;;;;;;;4.40;2.35;;;12.10;99.90;;;;;;4949783;29;20043;-75
2022/12/19 06:21:13;;;;;;;6.00;2.38;;;12.10;99.90;;;;;;4934840;29;20073;-74
2022/12/19 06:23:41;;;;;;;5.80;3.08;;;12.20;99.90;;;;;;4961388;28;20066;-75
2022/12/19 06:26:11;;;;;;;4.68;2.40;;;12.40;99.90;;;;;;4933760;29;20945;-77
2022/12/19 06:28:40;;;;;;;6.88;3.40;;;12.80;99.90;;;;;;4949844;29;20114;-75
2022/12/19 06:31:09;;;;;;;6.15;3.03;;;13.10;99.90;;;;;;4949422;29;20075;-75
2022/12/19 06:33:36;;;;;;;5.93;2.72;;;13.50;99.90;;;;;;4963883;28;20046;-75
2022/12/19 06:36:11;;;;;;;12.05;4.55;;;13.80;99.90;;;;;;4970550;28;20043;-75
2022/12/19 06:38:38;;;;;;;3.33;2.22;;;14.30;99.90;;;;;;4934025;29;20434;-75
2022/12/19 06:44:01;;;;;;;6.38;2.83;;;15.30;99.90;;;;;;4948432;28;20047;-74
2022/12/19 06:46:29;;;;;;;6.70;3.20;;;15.80;99.90;;;;;;4962652;28;20452;-76
2022/12/19 06:48:57;;;;;;;6.95;2.95;;;16.30;99.90;;;;;;4955427;28;20047;-74
2022/12/19 06:51:25;;;;;;;6.28;3.05;;;16.90;99.90;;;;;;4962908;28;20098;-77
2022/12/19 06:53:52;;;;;;;5.15;2.67;;;17.40;99.90;;;;;;4954326;28;20055;-74
2022/12/19 06:56:20;;;;;;;4.70;2.67;;;17.80;99.90;;;;;;4960336;28;20053;-76
2022/12/19 06:58:48;;;;;;;8.57;3.17;;;18.40;99.90;;;;;;4959775;28;20144;-75
2022/12/19 07:01:30;;;;;;;6.22;3.28;;;18.90;99.90;;;;;;4968659;28;20051;-75
2022/12/19 07:03:58;;;;;;;10.48;3.60;;;19.30;99.90;;;;;;4969820;28;20693;-74
2022/12/19 07:06:25;;;;;;;7.90;2.50;;;19.70;99.90;;;;;;4969223;28;20545;-76
2022/12/19 07:08:53;;;;;;;7.65;2.70;;;19.90;99.90;;;;;;4950580;28;20043;-75
2022/12/19 07:11:21;;;;;;;7.18;3.20;;;20.00;99.90;;;;;;4949219;29;20066;-74
2022/12/19 07:13:48;;;;;;;5.57;2.22;;;20.50;99.90;;;;;;4957811;28;20067;-74
2022/12/19 07:16:16;;;;;;;4.40;2.13;;;21.30;99.90;;;;;;4972656;28;20047;-74
2022/12/19 07:18:43;;;;;;;5.40;2.78;;;21.70;99.40;;;;;;4954425;28;20135;-75
2022/12/19 07:21:11;;;;;;;5.53;2.42;;;22.20;98.60;;;;;;4954089;28;20142;-74
2022/12/19 07:23:40;;;;;;;7.32;2.78;;;22.50;97.80;;;;;;4936199;29;20074;-74
2022/12/19 07:26:07;;;;;;;5.97;3.10;;;22.90;97.40;;;;;;4953086;28;20058;-74
2022/12/19 07:28:36;;;;;;;4.72;2.60;;;23.20;96.80;;;;;;4971401;28;20053;-74
2022/12/19 07:31:04;;;;;;;10.85;2.70;;;23.20;96.60;;;;;;4972913;28;20440;-74
2022/12/19 07:33:32;;;;;;;5.55;2.88;;;23.60;95.90;;;;;;4973060;28;20126;-75
2022/12/19 07:36:00;;;;;;;5.32;2.15;;;24.10;95.40;;;;;;4973016;28;20513;-74
2022/12/19 07:38:27;;;;;;;4.78;2.00;;;24.10;94.80;;;;;;4954681;28;20139;-74
2022/12/19 07:40:55;;;;;;;6.13;2.78;;;23.90;94.70;;;;;;4954071;28;20069;-73
2022/12/19 07:43:22;;;;;;;3.58;2.35;;;24.10;94.60;;;;;;4963609;28;20099;-75
2022/12/19 07:45:54;;;;;;;4.70;3.10;;;24.00;94.50;;;;;;4955149;28;20054;-74
2022/12/19 07:48:22;;;;;;;5.57;2.45;;;24.10;94.30;;;;;;4956035;28;20149;-74
2022/12/19 07:50:49;;;;;;;6.20;3.08;;;23.70;94.00;;;;;;4953703;28;20102;-74
2022/12/19 07:53:17;;;;;;;3.95;2.03;;;23.40;94.50;;;;;;4955662;28;20129;-73
2022/12/19 07:55:44;;;;;;;7.53;2.63;;;22.90;94.80;;;;;;4972500;28;20054;-75
2022/12/19 07:58:12;;;;;;;5.18;3.35;;;22.60;94.90;;;;;;4970052;28;20059;-74
2022/12/19 08:00:39;;;;;;;4.78;2.70;;;22.00;95.40;;;;;;4969293;28;20123;-74
2022/12/19 08:03:06;;;;;;;4.63;2.00;;;21.50;95.80;;;;;;4953355;28;20211;-74
2022/12/19 08:05:34;;;;;;;4.57;2.63;;;21.30;96.40;;;;;;4936088;29;20461;-74
2022/12/19 08:08:02;;;;;;;4.57;2.28;;;21.20;96.40;;;;;;4924838;29;20159;-75
2022/12/19 08:10:29;;;;;;;4.22;1.92;;;21.00;96.60;;;;;;4953589;29;20055;-74
2022/12/19 08:12:57;;;;;;;4.70;1.77;;;21.10;96.60;;;;;;4952390;28;20047;-74
2022/12/19 08:15:24;;;;;;;4.30;2.53;;;20.70;96.50;;;;;;4951938;29;20170;-74
2022/12/19 08:17:53;;;;;;;5.93;2.38;;;20.60;96.40;;;;;;4965652;28;20058;-74
2022/12/19 08:20:20;;;;;;;4.80;2.47;;;20.10;96.60;;;;;;4972492;28;20057;-74
2022/12/19 08:22:48;;;;;;;5.55;3.22;;;20.10;96.80;;;;;;4954840;28;20050;-74
2022/12/19 08:25:16;;;;;;;5.53;2.63;;;19.90;96.90;;;;;;4955449;28;20061;-74
2022/12/19 08:27:43;;;;;;;11.32;4.55;;;19.80;97.00;;;;;;4971050;28;20046;-74
2022/12/19 08:30:12;;;;;;;5.72;2.63;;;19.50;97.30;;;;;;4965676;28;20066;-74
2022/12/19 08:32:40;;;;;;;7.18;3.40;;;19.20;97.70;;;;;;4953036;28;20054;-76
2022/12/19 08:35:08;;;;;;;8.32;3.70;;;19.00;97.90;;;;;;4953345;28;20054;-75
2022/12/19 08:37:35;;;;;;;4.80;2.90;;;18.70;98.40;;;;;;4956152;28;20045;-74
2022/12/19 08:40:03;;;;;;;7.10;3.47;;;18.60;99.00;;;;;;4972378;28;20408;-75
2022/12/19 08:42:32;;;;;;;5.90;3.00;;;18.60;99.30;;;;;;4971022;28;20816;-74
2022/12/19 08:44:59;;;;;;;8.13;2.33;;;18.40;99.40;;;;;;4963672;28;20051;-74
2022/12/19 08:47:27;;;;;;;8.07;2.42;;;18.30;99.70;;;;;;4955647;28;20133;-74
2022/12/19 08:49:55;;;;;;;7.38;2.28;;;18.20;99.90;;;;;;4972194;28;20050;-74
2022/12/19 08:52:23;;;;;;;6.43;2.30;;;18.10;99.90;;;;;;4970587;28;20133;-77
2022/12/19 08:54:51;;;;;;;5.85;3.13;;;17.80;99.90;;;;;;4970669;28;20129;-75
2022/12/19 08:57:18;;;;;;;4.25;2.30;;;17.80;99.90;;;;;;4951980;28;20445;-74
2022/12/19 08:59:46;;;;;;;6.63;2.65;;;17.90;99.90;;;;;;4951684;28;20074;-75
2022/12/19 09:02:14;;;;;;;6.65;2.58;;;18.10;99.90;;;;;;4951528;28;20054;-73
2022/12/19 09:04:42;;;;;;;4.55;2.42;;;18.00;99.90;;;;;;4951200;29;20074;-75
2022/12/19 09:07:10;;;;;;;6.97;2.25;;;18.10;99.90;;;;;;4952947;28;20412;-74
2022/12/19 09:09:37;;;;;;;6.72;3.42;;;18.30;99.90;;;;;;4954279;28;20043;-74
2022/12/19 09:12:06;;;;;;;5.25;2.30;;;18.50;99.90;;;;;;4970610;28;20069;-74
2022/12/19 09:14:34;;;;;;;7.32;2.88;;;18.50;99.90;;;;;;4963012;28;20059;-73
2022/12/19 09:17:02;;;;;;;7.47;3.05;;;18.40;99.90;;;;;;4952137;29;20600;-76
2022/12/19 09:19:29;;;;;;;4.20;2.17;;;18.20;99.90;;;;;;4950612;29;20051;-77
2022/12/19 09:21:57;;;;;;;4.13;1.95;;;18.20;99.90;;;;;;4951046;29;20561;-74
2022/12/19 09:24:25;;;;;;;8.65;3.53;;;18.30;99.90;;;;;;4952175;29;20816;-73
2022/12/19 09:26:52;;;;;;;4.00;2.25;;;18.20;99.90;;;;;;4960220;28;20074;-74
2022/12/19 09:29:20;;;;;;;8.32;3.80;;;18.30;99.90;;;;;;4952958;28;20382;-77
2022/12/19 09:31:49;;;;;;;8.38;2.90;;;18.50;99.90;;;;;;4918721;29;20073;-74
2022/12/19 09:34:16;;;;;;;4.57;2.50;;;18.70;99.90;;;;;;4951881;28;20047;-74
2022/12/19 09:36:44;;;;;;;6.47;2.13;;;18.70;99.90;;;;;;4950319;29;20102;-74
2022/12/19 09:39:17;;;;;;;5.32;2.17;;;18.70;99.90;;;;;;4966071;28;20043;-74
2022/12/19 09:41:53;;;;;;;5.70;2.35;;;19.00;99.90;;;;;;4951563;28;20483;-74
2022/12/19 09:44:59;;;;;;;4.57;2.15;;;18.80;99.90;;;;;;4952078;28;20059;-75
2022/12/19 09:47:30;;;;;;;5.20;1.95;;;19.00;99.90;;;;;;4915120;28;21677;-75
2022/12/19 09:50:00;;;;;;;4.43;2.22;;;19.00;99.90;;;;;;4969562;28;20039;-74
2022/12/19 09:52:49;;;;;;;5.45;3.25;;;18.90;99.90;;;;;;4968779;28;20830;-74
2022/12/19 09:55:27;;;;;;;4.63;2.85;;;18.80;99.90;;;;;;4951720;28;20078;-75
2022/12/19 09:58:19;;;;;;;4.70;2.53;;;18.90;99.90;;;;;;4956256;28;20055;-74
2022/12/19 10:00:56;;;;;;;4.28;2.40;;;18.90;99.90;;;;;;4968597;28;20057;-74
2022/12/19 10:03:49;;;;;;;5.35;2.33;;;19.00;99.90;;;;;;4953419;28;20054;-74
2022/12/19 10:06:22;;;;;;;4.55;2.70;;;19.10;99.90;;;;;;4936493;29;20061;-75
2022/12/19 10:08:51;;;;;;;4.78;2.53;;;19.00;99.90;;;;;;4947304;28;20397;-73
2022/12/19 10:11:37;;;;;;;8.05;2.45;;;18.90;99.90;;;;;;4970347;28;20514;-74
2022/12/19 10:14:13;;;;;;;5.83;2.80;;;18.70;99.90;;;;;;4967928;28;20770;-75
2022/12/19 10:16:59;;;;;;;4.38;2.42;;;18.40;99.90;;;;;;4951285;29;20290;-74
2022/12/19 10:19:56;;;;;;;4.38;2.75;;;18.10;99.90;;;;;;4950753;28;20536;-75
2022/12/19 10:22:26;;;;;;;;;;;17.90;99.90;;;;;;4952050;28;20051;-74
2022/12/19 10:25:11;;;;;;;4.75;3.20;;;17.90;99.90;;;;;;4953713;28;20321;-74
2022/12/19 10:28:24;;;;;;;8.98;3.42;;;17.70;99.90;;;;;;4964977;28;20421;-73
2022/12/19 10:31:10;;;;;;;7.97;3.35;;;17.90;99.90;;;;;;4949535;28;20509;-74
2022/12/19 10:33:47;;;;;;;4.78;2.50;;;17.80;99.90;;;;;;4949851;29;20051;-74
2022/12/19 10:36:15;;;;;;;6.07;3.17;;;17.90;99.90;;;;;;4947188;28;20054;-74
2022/12/19 10:39:02;;;;;;;4.47;2.72;;;17.90;99.90;;;;;;4940914;29;20138;-74
2022/12/19 10:41:31;;;;;;;6.55;2.47;;;17.70;99.90;;;;;;4949567;29;20086;-77
2022/12/19 10:44:02;;;;;;;3.75;2.42;;;17.60;99.90;;;;;;4949754;29;20536;-74
2022/12/19 10:46:48;;;;;;;5.72;2.80;;;17.60;99.90;;;;;;4966031;28;20047;-73
2022/12/19 10:49:17;;;;;;;6.13;2.70;;;17.70;99.90;;;;;;4965044;28;20047;-74
2022/12/19 10:52:02;;;;;;;5.63;3.08;;;17.90;99.90;;;;;;4973638;28;20111;-74
2022/12/19 10:54:36;;;;;;;7.15;2.45;;;18.00;99.90;;;;;;4974231;28;20446;-75
2022/12/19 10:57:28;;;;;;;5.18;2.35;;;18.10;99.90;;;;;;4974072;28;20043;-74
2022/12/19 10:59:57;;;;;;;7.03;2.30;;;18.10;99.90;;;;;;4949296;29;20086;-75
2022/12/19 11:02:37;;;;;;;7.32;2.67;;;17.70;99.90;;;;;;4953301;29;20043;-74
2022/12/19 11:05:21;;;;;;;5.07;2.60;;;17.80;99.90;;;;;;4952795;29;20075;-74
2022/12/19 11:08:07;;;;;;;5.43;2.58;;;17.90;99.90;;;;;;4957249;28;20898;-74
2022/12/19 11:10:48;;;;;;;4.20;2.60;;;17.90;99.90;;;;;;4956594;28;20047;-74
2022/12/19 11:13:25;;;;;;;3.38;2.13;;;18.20;99.90;;;;;;4952807;29;20278;-74
2022/12/19 11:15:55;;;;;;;4.68;2.90;;;18.20;99.90;;;;;;4954330;28;20102;-74
2022/12/19 11:18:25;;;;;;;4.63;2.63;;;18.40;99.90;;;;;;4930263;28;20046;-74
2022/12/19 11:21:01;;;;;;;2.70;1.60;;;18.40;99.90;;;;;;4953510;28;20055;-74
2022/12/19 11:23:30;;;;;;;6.25;2.25;;;18.40;99.90;;;;;;4937636;29;20109;-74
2022/12/19 11:26:01;;;;;;;3.65;2.65;;;18.20;99.90;;;;;;4936805;29;20150;-74
2022/12/19 11:28:36;;;;;;;4.97;2.75;;;18.20;99.90;;;;;;4963500;28;20042;-74
2022/12/19 11:31:14;;;;;;;4.35;2.38;;;18.10;99.90;;;;;;4953948;28;20055;-75
2022/12/19 11:34:05;;;;;;;8.90;5.05;;;17.90;99.90;;;;;;4953905;28;20074;-74
2022/12/19 11:36:43;;;;;;;6.35;2.55;;;18.00;99.90;;;;;;4937228;29;20381;-75
2022/12/19 11:39:43;;;;;;;7.88;2.97;;;18.10;99.90;;;;;;4963226;28;20430;-73
2022/12/19 11:42:28;;;;;;;7.93;3.17;;;18.10;99.90;;;;;;4933968;29;20078;-74
2022/12/19 11:45:21;;;;;;;4.03;2.25;;;18.00;99.90;;;;;;4953694;28;20161;-74
2022/12/19 11:47:59;;;;;;;7.68;2.58;;;18.00;99.90;;;;;;4939495;28;20057;-74
2022/12/19 11:50:37;;;;;;;7.10;2.47;;;18.00;99.90;;;;;;4957970;28;20097;-74
2022/12/19 11:53:16;;;;;;;4.35;2.08;;;17.80;99.90;;;;;;4952316;29;20043;-74
2022/12/19 11:55:57;;;;;;;7.97;2.20;;;17.70;99.90;;;;;;4954166;28;20050;-76
2022/12/19 11:58:30;;;;;;;5.50;2.00;;;17.80;99.90;;;;;;4952721;29;20051;-77
2022/12/19 12:01:11;;;;;;;12.63;2.53;;;17.90;99.90;;;;;;4952624;28;20043;-75
2022/12/19 12:03:57;;;;;;;4.53;3.50;;;17.80;99.90;;;;;;4937734;29;20127;-76
2022/12/19 12:06:33;;;;;;;5.05;2.47;;;17.70;99.90;;;;;;4969809;28;20468;-76
2022/12/19 12:09:18;;;;;;;6.45;2.50;;;17.90;99.90;;;;;;4965212;28;20047;-76
2022/12/19 12:11:56;;;;;;;4.72;2.80;;;17.70;99.90;;;;;;4971419;28;20196;-76
2022/12/19 12:14:50;;;;;;;3.88;2.10;;;17.80;99.90;;;;;;4971977;28;20059;-80
2022/12/19 12:17:47;;;;;;;5.10;2.30;;;17.70;99.90;;;;;;4973345;28;20362;-77
2022/12/19 12:20:50;;;;;;;6.80;3.25;;;17.40;99.90;;;;;;4955229;28;20054;-76
2022/12/19 12:23:44;;;;;;;4.20;2.20;;;17.40;99.90;;;;;;4956491;28;20134;-77
2022/12/19 12:26:14;;;;;;;3.25;1.95;;;17.50;99.90;;;;;;4971613;28;20039;-77
2022/12/19 12:28:57;;;;;;;3.75;2.38;;;17.40;99.90;;;;;;4961882;28;20691;-78
2022/12/19 12:32:29;;;;;;;5.93;3.30;;;17.30;99.90;;;;;;4970924;28;20115;-75
2022/12/19 12:35:23;;;;;;;5.40;2.40;;;17.30;99.90;;;;;;4935198;29;20121;-79
2022/12/19 12:38:41;;;;;;;4.13;2.67;;;17.00;99.90;;;;;;4957470;28;20418;-77
2022/12/19 12:42:02;;;;;;;6.60;2.50;;;16.70;99.90;;;;;;4971216;28;20055;-77
2022/12/19 12:44:12;;;;;;;7.00;2.80;;;16.70;99.90;;;;;;4972439;28;20137;-77
2022/12/19 12:46:58;;;;;;;4.57;3.38;;;16.60;99.90;;;;;;4971984;28;20043;-76
2022/12/19 12:49:43;;;;;;;5.57;3.22;;;16.60;99.90;;;;;;4955038;28;20074;-77
2022/12/19 12:52:31;;;;;;;5.35;2.78;;;16.70;99.90;;;;;;4970954;28;20492;-78
2022/12/19 12:55:00;;;;;;;5.30;2.78;;;16.60;99.90;;;;;;4957768;28;20121;-76
2022/12/19 12:57:28;;;;;;;4.90;2.40;;;16.50;99.90;;;;;;4960738;28;20047;-76
2022/12/19 13:00:18;;;;;;;4.60;2.78;;;16.40;99.90;;;;;;4970882;28;20049;-76
2022/12/19 13:03:16;;;;;;;4.82;2.45;;;16.50;99.90;;;;;;4971943;28;20047;-77
2022/12/19 13:06:02;;;;;;;4.53;3.15;;;16.40;99.90;;;;;;4955927;28;20460;-77
2022/12/19 13:08:45;;;;;;;6.22;4.28;;;16.50;99.90;;;;;;4944481;28;20126;-76
2022/12/19 13:14:34;;;;;;;5.25;2.42;;;16.40;99.90;;;;;;4952362;28;20126;-76
2022/12/19 13:17:08;;;;;;;4.45;3.15;;;16.30;99.90;;;;;;4958779;28;20137;-77
2022/12/19 13:19:39;;;;;;;6.68;2.90;;;16.30;99.90;;;;;;4954036;28;20524;-76
2022/12/19 13:22:06;;;;;;;5.25;2.35;;;16.30;99.90;;;;;;4935098;29;20131;-76
2022/12/19 13:24:39;;;;;;;8.32;3.30;;;16.10;99.90;;;;;;4951325;29;20046;-76
2022/12/19 13:27:31;;;;;;;8.20;3.17;;;16.10;99.90;;;;;;4959097;28;20050;-77
2022/12/19 13:29:59;;;;;;;6.00;2.88;;;16.10;99.90;;;;;;4944409;28;20146;-77
2022/12/19 13:32:32;;;;;;;4.85;3.10;;;16.10;99.90;;;;;;4950713;29;20074;-76
2022/12/19 13:35:02;;;;;;;5.93;2.90;;;16.10;99.90;;;;;;4951476;29;20043;-77